Time;durP1;ratioP1;P1;durP2;ratioP2;P2;SDS_P1;SDS_P2;PMS_P1;PMS_P2;Temp;Humidity;BMP_temperature;BMP_pressure;BME280_temperature;BME280_humidity;BME280_pressure;Samples;Min_cycle;Max_cycle;Signal;HPM_P1;HPM_P2
2021/09/10 00:01:29;;;;;;;8.30;7.60;;;26.30;51.30;;;;;;5010056;28;20549;-44
2021/09/10 00:03:54;;;;;;;9.90;7.73;;;26.20;51.30;;;;;;5009478;28;20200;-44
2021/09/10 00:06:20;;;;;;;8.03;7.33;;;26.10;51.50;;;;;;5008481;28;20201;-45
2021/09/10 00:08:46;;;;;;;9.27;8.37;;;26.20;51.70;;;;;;5006147;28;20329;-44
2021/09/10 00:11:11;;;;;;;8.17;7.43;;;26.10;51.50;;;;;;5010834;28;20198;-46
2021/09/10 00:13:37;;;;;;;8.77;7.97;;;26.10;51.60;;;;;;5008755;28;20217;-45
2021/09/10 00:16:03;;;;;;;8.27;7.07;;;26.20;51.60;;;;;;4996083;28;20661;-45
2021/09/10 00:18:29;;;;;;;7.80;7.20;;;26.20;51.50;;;;;;4997422;28;20194;-46
2021/09/10 00:20:54;;;;;;;8.73;7.93;;;26.20;51.50;;;;;;5011101;28;20241;-46
2021/09/10 00:23:20;;;;;;;10.60;7.60;;;26.10;51.40;;;;;;5003491;28;20428;-46
2021/09/10 00:25:46;;;;;;;8.10;7.30;;;26.10;51.50;;;;;;5004234;28;20599;-45
2021/09/10 00:28:11;;;;;;;10.37;7.20;;;26.10;51.50;;;;;;5008174;28;20197;-45
2021/09/10 00:30:37;;;;;;;9.60;7.77;;;26.10;51.60;;;;;;5004027;28;20194;-48
2021/09/10 00:33:02;;;;;;;8.23;7.47;;;26.10;51.50;;;;;;5008848;28;20319;-45
2021/09/10 00:35:28;;;;;;;7.87;7.27;;;26.20;51.40;;;;;;5010897;28;20194;-45
2021/09/10 00:37:54;;;;;;;8.17;7.47;;;26.20;51.30;;;;;;5008910;28;20252;-45
2021/09/10 00:40:19;;;;;;;8.80;7.30;;;26.10;51.50;;;;;;5008647;28;20201;-45
2021/09/10 00:42:45;;;;;;;7.03;6.30;;;26.20;51.40;;;;;;5002290;28;20198;-46
2021/09/10 00:45:11;;;;;;;8.03;7.33;;;26.10;51.50;;;;;;5007033;28;20220;-44
2021/09/10 00:47:41;;;;;;;8.10;7.30;;;26.20;51.20;;;;;;5012219;28;20214;-45
2021/09/10 00:50:07;;;;;;;7.83;7.03;;;26.20;51.10;;;;;;5007361;28;20205;-44
2021/09/10 00:52:32;;;;;;;7.40;6.70;;;26.20;51.30;;;;;;5012790;28;20523;-46
2021/09/10 00:54:58;;;;;;;7.60;7.00;;;26.10;51.50;;;;;;5010857;28;20464;-46
2021/09/10 00:57:24;;;;;;;8.47;7.67;;;26.00;51.50;;;;;;5002828;28;20190;-45
2021/09/10 00:59:49;;;;;;;7.47;6.87;;;26.00;51.60;;;;;;5014024;28;20429;-45
2021/09/10 01:02:16;;;;;;;8.80;7.90;;;26.00;51.50;;;;;;5013174;28;20193;-47
2021/09/10 01:04:42;;;;;;;7.67;6.97;;;26.10;51.30;;;;;;5005242;28;20277;-45
2021/09/10 01:07:10;;;;;;;8.77;7.90;;;26.00;51.60;;;;;;5010628;28;20995;-45
2021/09/10 01:09:38;;;;;;;7.70;7.10;;;25.90;51.70;;;;;;5013545;28;20436;-46
2021/09/10 01:12:04;;;;;;;7.70;7.10;;;25.90;51.90;;;;;;5010933;28;20884;-46
2021/09/10 01:14:31;;;;;;;8.37;7.40;;;25.90;51.80;;;;;;5006834;28;20432;-45
2021/09/10 01:16:57;;;;;;;8.20;7.50;;;25.70;52.10;;;;;;5012414;28;20429;-48
2021/09/10 01:19:33;;;;;;;7.80;7.10;;;25.70;52.10;;;;;;5006966;28;20433;-46
2021/09/10 01:22:01;;;;;;;6.50;5.90;;;25.70;52.20;;;;;;5013472;28;20201;-46
2021/09/10 01:24:34;;;;;;;7.40;6.70;;;25.70;52.30;;;;;;5012762;28;20440;-46
2021/09/10 01:27:00;;;;;;;8.33;7.47;;;25.70;52.00;;;;;;5012726;28;20440;-45
2021/09/10 01:29:27;;;;;;;8.30;7.50;;;25.60;52.40;;;;;;5004851;28;20804;-45
2021/09/10 01:31:53;;;;;;;7.13;6.63;;;25.60;52.50;;;;;;5009979;28;20651;-45
2021/09/10 01:34:20;;;;;;;8.10;7.40;;;25.50;52.60;;;;;;5005018;28;20440;-46
2021/09/10 01:36:46;;;;;;;8.40;7.60;;;25.60;52.40;;;;;;5012940;28;20499;-44
2021/09/10 01:39:12;;;;;;;8.57;7.87;;;25.60;52.20;;;;;;5006969;28;20964;-46
2021/09/10 01:41:37;;;;;;;8.23;7.50;;;25.60;52.20;;;;;;5006905;28;20524;-45
2021/09/10 01:44:03;;;;;;;9.60;7.30;;;25.80;52.10;;;;;;5012896;28;20200;-45
2021/09/10 01:46:29;;;;;;;9.73;6.73;;;25.60;52.00;;;;;;5006385;28;20190;-45
2021/09/10 01:48:55;;;;;;;7.67;6.93;;;25.70;52.10;;;;;;5011813;28;20436;-45
2021/09/10 01:51:33;;;;;;;8.13;7.33;;;25.70;52.10;;;;;;5007109;28;20200;-45
2021/09/10 01:54:00;;;;;;;15.37;8.40;;;25.60;52.40;;;;;;5011809;28;20317;-46
2021/09/10 01:56:26;;;;;;;7.33;6.73;;;25.60;52.30;;;;;;4997844;28;20564;-45
2021/09/10 01:58:52;;;;;;;8.10;7.30;;;25.60;52.30;;;;;;5012926;28;20472;-47
2021/09/10 02:01:25;;;;;;;7.73;7.03;;;25.60;52.30;;;;;;5009632;28;20506;-44
2021/09/10 02:03:51;;;;;;;7.60;6.90;;;25.60;52.40;;;;;;5012098;28;20285;-46
2021/09/10 02:06:17;;;;;;;7.90;7.30;;;25.60;52.50;;;;;;5011584;28;20554;-45
2021/09/10 02:08:43;;;;;;;7.87;7.23;;;25.60;52.40;;;;;;5011344;28;20437;-44
2021/09/10 02:11:09;;;;;;;7.03;6.43;;;25.50;52.30;;;;;;5010397;28;20491;-45
2021/09/10 02:13:34;;;;;;;7.80;7.10;;;25.50;52.70;;;;;;5011538;28;20616;-45
2021/09/10 02:16:00;;;;;;;7.13;6.50;;;25.40;52.50;;;;;;5002793;28;20662;-45
2021/09/10 02:18:25;;;;;;;7.77;7.07;;;25.50;52.70;;;;;;5011758;28;20273;-45
2021/09/10 02:20:51;;;;;;;8.20;7.40;;;25.50;52.50;;;;;;5011082;28;20190;-45
2021/09/10 02:23:16;;;;;;;7.93;7.23;;;25.50;52.50;;;;;;5012203;28;20504;-48
2021/09/10 02:25:42;;;;;;;7.37;6.53;;;25.40;52.70;;;;;;5011366;28;20190;-45
2021/09/10 02:28:08;;;;;;;8.67;7.87;;;25.20;53.10;;;;;;5009476;28;20646;-45
2021/09/10 02:30:34;;;;;;;8.20;7.50;;;25.20;53.30;;;;;;5012167;28;20194;-45
2021/09/10 02:33:00;;;;;;;8.40;7.70;;;25.20;53.20;;;;;;5001985;28;20232;-45
2021/09/10 02:35:26;;;;;;;8.70;7.87;;;25.10;53.50;;;;;;5004641;28;20526;-44
2021/09/10 02:37:51;;;;;;;8.90;8.00;;;25.00;53.80;;;;;;5007565;28;20441;-45
2021/09/10 02:40:17;;;;;;;8.13;7.33;;;24.90;53.90;;;;;;5005780;28;20204;-45
2021/09/10 02:42:42;;;;;;;7.73;7.20;;;24.90;53.90;;;;;;5011034;28;20297;-45
2021/09/10 02:45:09;;;;;;;8.40;7.50;;;24.90;53.70;;;;;;4997852;28;20191;-46
2021/09/10 02:47:34;;;;;;;8.77;7.97;;;24.90;53.90;;;;;;5007229;28;20199;-44
2021/09/10 02:50:00;;;;;;;7.63;6.97;;;24.80;54.10;;;;;;5010774;28;20441;-45
2021/09/10 02:52:26;;;;;;;8.60;7.80;;;24.80;54.10;;;;;;5010624;28;20636;-46
2021/09/10 02:54:51;;;;;;;8.57;7.87;;;24.90;53.90;;;;;;5006719;28;20274;-48
2021/09/10 02:57:17;;;;;;;7.20;6.50;;;24.90;53.90;;;;;;5011165;28;20576;-46
2021/09/10 02:59:42;;;;;;;7.30;6.73;;;25.00;53.70;;;;;;5010828;28;20204;-45
2021/09/10 03:02:08;;;;;;;8.67;6.97;;;25.10;53.50;;;;;;5011307;28;20202;-46
2021/09/10 03:04:33;;;;;;;7.37;6.77;;;25.10;53.50;;;;;;5011475;28;20196;-45
2021/09/10 03:06:59;;;;;;;9.80;6.93;;;25.20;53.40;;;;;;5007227;28;20208;-48
2021/09/10 03:09:26;;;;;;;8.87;7.60;;;25.20;53.20;;;;;;5011130;28;20201;-46
2021/09/10 03:11:52;;;;;;;8.93;8.10;;;25.20;53.10;;;;;;5004987;28;20221;-47
2021/09/10 03:14:18;;;;;;;8.27;7.57;;;25.30;53.00;;;;;;5004999;28;20507;-49
2021/09/10 03:16:43;;;;;;;8.43;7.63;;;25.20;53.10;;;;;;5008262;28;20277;-46
2021/09/10 03:19:09;;;;;;;8.80;8.10;;;25.30;53.00;;;;;;5010644;28;20647;-45
2021/09/10 03:21:35;;;;;;;8.73;7.87;;;25.30;53.00;;;;;;5011858;28;20193;-44
2021/09/10 03:24:01;;;;;;;8.83;7.03;;;25.30;52.80;;;;;;5009368;28;20433;-46
2021/09/10 03:26:27;;;;;;;7.77;7.07;;;25.20;52.70;;;;;;5004649;28;20201;-46
2021/09/10 03:28:52;;;;;;;9.10;8.40;;;25.30;52.90;;;;;;5002488;28;20209;-45
2021/09/10 03:31:18;;;;;;;7.80;7.10;;;25.20;52.80;;;;;;5000992;28;20194;-44
2021/09/10 03:33:44;;;;;;;8.60;7.87;;;25.30;53.00;;;;;;5007017;28;20225;-46
2021/09/10 03:36:09;;;;;;;11.00;8.17;;;25.20;52.30;;;;;;5008666;28;20281;-48
2021/09/10 03:38:35;;;;;;;9.07;8.20;;;25.20;52.10;;;;;;5006948;28;20631;-50
2021/09/10 03:41:00;;;;;;;9.20;8.40;;;24.70;53.40;;;;;;5007550;28;20623;-45
2021/09/10 03:43:26;;;;;;;9.23;8.20;;;24.10;54.60;;;;;;5006683;28;20194;-46
2021/09/10 03:45:51;;;;;;;10.10;8.80;;;24.00;55.00;;;;;;5007920;28;20198;-46
2021/09/10 03:48:17;;;;;;;9.87;8.87;;;23.80;55.60;;;;;;5004749;28;20198;-49
2021/09/10 03:50:42;;;;;;;11.17;10.07;;;23.60;55.90;;;;;;5007489;28;20197;-48
2021/09/10 03:53:08;;;;;;;10.27;9.40;;;23.70;55.90;;;;;;5005843;28;20693;-45
2021/09/10 03:55:34;;;;;;;10.00;8.77;;;23.60;56.00;;;;;;5005808;28;20217;-45
2021/09/10 03:57:59;;;;;;;9.37;8.40;;;23.60;56.20;;;;;;5006035;28;20233;-45
2021/09/10 04:00:25;;;;;;;9.17;8.43;;;23.50;56.30;;;;;;5004126;28;20551;-47
2021/09/10 04:02:50;;;;;;;10.20;9.20;;;23.20;57.10;;;;;;5002698;28;20194;-45
2021/09/10 04:05:16;;;;;;;9.70;8.80;;;23.20;57.20;;;;;;5007289;28;20205;-46
2021/09/10 04:07:42;;;;;;;10.63;9.63;;;23.20;57.10;;;;;;5005983;28;20195;-47
2021/09/10 04:10:08;;;;;;;9.87;8.87;;;23.10;57.20;;;;;;5008731;28;20186;-46
2021/09/10 04:12:34;;;;;;;9.47;8.50;;;23.10;57.50;;;;;;5006275;28;20487;-45
2021/09/10 04:14:59;;;;;;;10.97;9.80;;;22.90;57.80;;;;;;5008014;28;20194;-46
2021/09/10 04:17:25;;;;;;;10.30;9.40;;;22.90;57.90;;;;;;5007447;28;20198;-45
2021/09/10 04:19:50;;;;;;;10.63;9.63;;;22.80;58.00;;;;;;5007404;28;20193;-45
2021/09/10 04:22:16;;;;;;;9.97;9.07;;;22.60;58.30;;;;;;5010114;28;20198;-47
2021/09/10 04:24:42;;;;;;;10.13;9.23;;;22.60;58.60;;;;;;5010698;28;20305;-47
2021/09/10 04:27:07;;;;;;;10.90;8.90;;;22.50;58.80;;;;;;5011507;28;20201;-45
2021/09/10 04:29:33;;;;;;;9.47;8.50;;;22.50;58.60;;;;;;5011634;28;20681;-45
2021/09/10 04:31:58;;;;;;;11.03;10.07;;;22.60;58.60;;;;;;5010563;28;20196;-49
2021/09/10 04:34:24;;;;;;;9.73;8.77;;;22.50;58.70;;;;;;5011549;28;20200;-47
2021/09/10 04:36:50;;;;;;;9.77;8.87;;;22.20;59.30;;;;;;5010921;28;20190;-48
2021/09/10 04:39:15;;;;;;;10.57;9.47;;;22.10;59.80;;;;;;5009747;28;20190;-47
2021/09/10 04:41:41;;;;;;;9.60;8.90;;;22.00;60.10;;;;;;5009250;28;20228;-45
2021/09/10 04:44:06;;;;;;;10.60;9.60;;;22.00;60.00;;;;;;5010364;28;20672;-48
2021/09/10 04:46:32;;;;;;;10.37;9.40;;;22.00;60.00;;;;;;5011547;28;20212;-46
2021/09/10 04:48:57;;;;;;;11.43;10.30;;;21.90;60.10;;;;;;5011594;28;20218;-50
2021/09/10 04:51:23;;;;;;;9.47;8.47;;;21.60;61.10;;;;;;5008885;28;20267;-45
2021/09/10 04:53:49;;;;;;;10.30;9.17;;;21.50;61.50;;;;;;5010432;28;20640;-45
2021/09/10 04:56:14;;;;;;;10.83;9.80;;;21.60;61.20;;;;;;5006608;28;20191;-46
2021/09/10 04:58:40;;;;;;;10.93;9.50;;;21.80;60.50;;;;;;5010585;28;20276;-45
2021/09/10 05:01:05;;;;;;;10.30;9.30;;;22.00;60.10;;;;;;5011724;28;20194;-46
2021/09/10 05:03:31;;;;;;;11.57;10.47;;;22.10;59.60;;;;;;5010366;28;20660;-46
2021/09/10 05:05:57;;;;;;;11.13;10.07;;;22.20;59.40;;;;;;5010563;28;20194;-46
2021/09/10 05:08:22;;;;;;;11.00;9.90;;;22.00;59.80;;;;;;5009649;28;20190;-47
2021/09/10 05:10:48;;;;;;;9.60;8.70;;;21.90;59.90;;;;;;5013081;28;20200;-47
2021/09/10 05:13:13;;;;;;;9.30;8.03;;;21.90;60.80;;;;;;5012168;28;20228;-50
2021/09/10 05:15:39;;;;;;;7.70;6.97;;;21.80;63.70;;;;;;5004566;28;20209;-45
2021/09/10 05:18:05;;;;;;;8.20;7.40;;;22.10;62.40;;;;;;5012200;28;20202;-46
2021/09/10 05:20:30;;;;;;;8.20;7.40;;;22.50;60.70;;;;;;5007856;28;20187;-50
2021/09/10 05:22:56;;;;;;;8.70;7.80;;;22.70;59.70;;;;;;5006623;28;20201;-48
2021/09/10 05:25:25;;;;;;;9.20;8.40;;;23.10;58.60;;;;;;5012618;28;20198;-46
2021/09/10 05:27:51;;;;;;;9.80;8.97;;;23.40;57.50;;;;;;5010386;28;20198;-46
2021/09/10 05:30:17;;;;;;;8.80;7.90;;;23.40;57.00;;;;;;5013119;28;20515;-45
2021/09/10 05:32:42;;;;;;;8.83;7.90;;;23.50;57.20;;;;;;5006084;28;21000;-48
2021/09/10 05:35:10;;;;;;;8.83;7.90;;;23.50;57.70;;;;;;5012454;28;20186;-46
2021/09/10 05:37:36;;;;;;;8.33;7.73;;;23.50;57.70;;;;;;5005439;28;20206;-45
2021/09/10 05:40:03;;;;;;;9.10;8.30;;;23.50;57.60;;;;;;5012038;28;20440;-50
2021/09/10 05:42:29;;;;;;;8.40;7.70;;;23.70;57.10;;;;;;5013301;28;20520;-46
2021/09/10 05:44:54;;;;;;;9.50;8.60;;;23.70;56.30;;;;;;5008328;28;21043;-46
2021/09/10 05:47:20;;;;;;;9.23;8.43;;;23.70;56.20;;;;;;5001365;28;20559;-50
2021/09/10 05:49:45;;;;;;;8.83;8.13;;;23.80;56.10;;;;;;5002471;28;20190;-46
2021/09/10 05:52:11;;;;;;;9.43;8.63;;;23.80;56.00;;;;;;5010344;28;20291;-46
2021/09/10 05:54:37;;;;;;;9.60;8.80;;;23.80;56.60;;;;;;5010545;28;20194;-45
2021/09/10 05:57:04;;;;;;;10.03;9.00;;;23.80;56.30;;;;;;5006859;28;20566;-50
2021/09/10 05:59:30;;;;;;;9.70;8.90;;;23.70;56.60;;;;;;5008925;28;20471;-46
2021/09/10 06:01:56;;;;;;;8.30;7.70;;;23.70;56.60;;;;;;5013141;28;20441;-49
2021/09/10 06:04:22;;;;;;;10.20;9.30;;;23.70;56.50;;;;;;5005596;28;20430;-49
2021/09/10 06:06:47;;;;;;;10.43;7.73;;;23.90;56.50;;;;;;5013678;28;20208;-47
2021/09/10 06:09:13;;;;;;;10.20;9.33;;;24.00;56.30;;;;;;5011605;28;20276;-45
2021/09/10 06:11:38;;;;;;;9.13;7.50;;;24.10;55.80;;;;;;5009427;28;20230;-44
2021/09/10 06:14:04;;;;;;;10.03;8.40;;;24.20;55.80;;;;;;5010419;28;20657;-47
2021/09/10 06:16:30;;;;;;;9.03;8.10;;;24.40;55.40;;;;;;5013154;28;20204;-50
2021/09/10 06:18:55;;;;;;;9.20;8.40;;;24.40;55.40;;;;;;5012495;28;20680;-46
2021/09/10 06:21:21;;;;;;;10.50;8.50;;;24.60;55.20;;;;;;5011549;28;20200;-45
2021/09/10 06:23:47;;;;;;;9.30;8.17;;;24.70;54.80;;;;;;5010861;28;20194;-49
2021/09/10 06:26:15;;;;;;;8.90;7.97;;;24.80;54.60;;;;;;5012780;28;20193;-46
2021/09/10 06:28:41;;;;;;;9.77;8.83;;;24.90;55.10;;;;;;5005163;28;20195;-49
2021/09/10 06:31:06;;;;;;;10.30;8.53;;;24.50;55.20;;;;;;5011166;28;20435;-47
2021/09/10 06:33:32;;;;;;;9.37;8.47;;;24.50;55.40;;;;;;5011013;28;20292;-48
2021/09/10 06:35:57;;;;;;;8.60;7.90;;;24.60;55.30;;;;;;5012095;28;20190;-49
2021/09/10 06:38:23;;;;;;;9.37;8.43;;;24.80;55.00;;;;;;5009072;28;20204;-50
2021/09/10 06:40:48;;;;;;;8.50;7.80;;;24.80;54.20;;;;;;5010708;28;20558;-48
2021/09/10 06:43:14;;;;;;;8.67;7.97;;;24.80;54.90;;;;;;5007357;28;20217;-49
2021/09/10 06:45:42;;;;;;;9.13;8.40;;;24.80;54.60;;;;;;5012928;28;20186;-45
2021/09/10 06:48:07;;;;;;;8.73;8.10;;;24.70;54.30;;;;;;4994553;28;20639;-49
2021/09/10 06:50:33;;;;;;;9.67;8.83;;;24.70;54.60;;;;;;4995492;28;20484;-47
2021/09/10 06:52:59;;;;;;;9.60;8.77;;;24.90;54.20;;;;;;4992329;28;20253;-46
2021/09/10 06:55:24;;;;;;;10.20;9.20;;;25.10;54.00;;;;;;4996902;28;20199;-49
2021/09/10 06:57:50;;;;;;;9.10;8.20;;;25.40;53.50;;;;;;4997157;28;20313;-46
2021/09/10 07:00:16;;;;;;;9.13;8.27;;;25.50;53.50;;;;;;5005654;28;20607;-49
2021/09/10 07:02:42;;;;;;;8.23;7.50;;;25.80;53.50;;;;;;5011793;28;20201;-45
2021/09/10 07:05:08;;;;;;;8.73;8.03;;;26.00;52.30;;;;;;5006681;28;20255;-47
2021/09/10 07:07:33;;;;;;;10.73;8.33;;;26.30;51.80;;;;;;5000770;28;20474;-45
2021/09/10 07:09:59;;;;;;;8.37;7.67;;;26.50;51.20;;;;;;5011675;28;20469;-47
2021/09/10 07:12:25;;;;;;;9.20;8.40;;;26.70;50.80;;;;;;5009730;28;20226;-46
2021/09/10 07:14:51;;;;;;;9.03;8.30;;;26.90;50.10;;;;;;5010206;28;20247;-46
2021/09/10 07:17:17;;;;;;;9.40;8.50;;;27.00;49.60;;;;;;4996525;28;20437;-50
2021/09/10 07:19:42;;;;;;;9.47;8.70;;;26.90;50.00;;;;;;5010918;28;20574;-48
2021/09/10 07:22:08;;;;;;;12.43;8.20;;;26.80;49.90;;;;;;5011133;28;20233;-46
2021/09/10 07:24:33;;;;;;;8.27;7.37;;;26.90;49.90;;;;;;5004883;28;20194;-46
2021/09/10 07:26:59;;;;;;;9.20;8.50;;;27.20;49.70;;;;;;5011342;28;20213;-46
2021/09/10 07:29:25;;;;;;;8.90;8.10;;;27.40;49.30;;;;;;5009915;28;20194;-44
2021/09/10 07:31:51;;;;;;;9.10;8.20;;;27.60;48.80;;;;;;5010509;28;20562;-45
2021/09/10 07:34:17;;;;;;;8.90;8.13;;;27.80;48.50;;;;;;5009809;28;20433;-44
2021/09/10 07:36:48;;;;;;;9.03;8.30;;;27.90;48.30;;;;;;5010698;28;20194;-49
2021/09/10 07:39:18;;;;;;;8.50;7.80;;;27.90;48.10;;;;;;5010814;28;20279;-44
2021/09/10 07:41:44;;;;;;;8.50;7.80;;;28.00;47.60;;;;;;5010938;28;20932;-46
2021/09/10 07:44:10;;;;;;;16.87;8.53;;;28.00;46.90;;;;;;5011163;28;20424;-45
2021/09/10 07:46:35;;;;;;;8.67;7.80;;;28.20;47.10;;;;;;5009956;28;20519;-44
2021/09/10 07:49:01;;;;;;;9.23;8.43;;;28.00;46.70;;;;;;5007633;28;20555;-47
2021/09/10 07:51:26;;;;;;;9.37;7.43;;;28.20;46.70;;;;;;5001582;28;20297;-48
2021/09/10 07:53:52;;;;;;;8.70;7.87;;;28.40;46.70;;;;;;5010852;28;20319;-46
2021/09/10 07:56:18;;;;;;;8.07;7.37;;;28.50;46.10;;;;;;4998449;28;20190;-48
2021/09/10 07:58:43;;;;;;;9.13;8.13;;;28.10;46.60;;;;;;5010677;28;20241;-44
2021/09/10 08:01:09;;;;;;;8.27;7.37;;;28.20;46.40;;;;;;5004715;28;20194;-49
2021/09/10 08:03:35;;;;;;;8.40;7.70;;;28.30;46.40;;;;;;5001763;28;20190;-46
2021/09/10 08:06:00;;;;;;;7.90;7.30;;;28.40;46.10;;;;;;5010352;28;20216;-48
2021/09/10 08:08:26;;;;;;;7.53;6.93;;;28.50;46.10;;;;;;5010677;28;20193;-47
2021/09/10 08:10:51;;;;;;;8.80;8.03;;;28.70;45.80;;;;;;5011626;28;20666;-47
2021/09/10 08:13:18;;;;;;;7.77;7.03;;;28.80;45.70;;;;;;5000044;28;20238;-46
2021/09/10 08:15:43;;;;;;;8.90;8.00;;;28.80;45.60;;;;;;5003489;28;20202;-45
2021/09/10 08:18:09;;;;;;;8.43;7.70;;;29.00;45.20;;;;;;4991218;28;20430;-46
2021/09/10 08:20:34;;;;;;;10.30;9.50;;;29.00;44.90;;;;;;4990564;28;20234;-46
2021/09/10 08:23:00;;;;;;;8.70;7.90;;;29.00;45.30;;;;;;4991080;28;20195;-47
2021/09/10 08:25:25;;;;;;;9.50;8.60;;;29.00;45.20;;;;;;4992016;28;20197;-45
2021/09/10 08:27:51;;;;;;;11.93;8.57;;;29.10;45.50;;;;;;4990845;28;20717;-46
2021/09/10 08:30:17;;;;;;;8.17;7.37;;;29.00;44.80;;;;;;5006657;28;20233;-45
2021/09/10 08:32:42;;;;;;;8.87;8.07;;;29.00;44.80;;;;;;4993828;28;20234;-47
2021/09/10 08:35:08;;;;;;;8.40;7.60;;;29.10;45.30;;;;;;4991904;28;20230;-46
2021/09/10 08:37:34;;;;;;;8.97;8.07;;;29.10;44.90;;;;;;4997291;28;20278;-46
2021/09/10 08:40:01;;;;;;;8.13;7.40;;;29.40;45.20;;;;;;4997190;28;20516;-45
2021/09/10 08:42:27;;;;;;;7.10;6.50;;;29.60;44.20;;;;;;4999425;28;20214;-48
2021/09/10 08:44:53;;;;;;;8.00;7.30;;;29.60;43.60;;;;;;4997168;28;20988;-44
2021/09/10 08:47:19;;;;;;;8.70;8.00;;;29.70;42.60;;;;;;5010468;28;20429;-45
2021/09/10 08:49:45;;;;;;;8.17;7.57;;;29.90;43.10;;;;;;5004892;28;20185;-44
2021/09/10 08:52:11;;;;;;;6.47;5.97;;;30.10;42.50;;;;;;5008992;28;20195;-44
2021/09/10 08:54:37;;;;;;;8.67;7.97;;;30.20;42.30;;;;;;5006652;28;20454;-48
2021/09/10 08:57:03;;;;;;;8.13;7.43;;;30.10;41.70;;;;;;5000323;28;20515;-45
2021/09/10 08:59:29;;;;;;;8.80;7.50;;;29.90;42.40;;;;;;5009440;28;20257;-45
2021/09/10 09:01:58;;;;;;;7.83;7.23;;;30.10;42.80;;;;;;5009405;28;20530;-47
2021/09/10 09:04:31;;;;;;;8.10;7.50;;;30.30;42.40;;;;;;5004713;28;20226;-48
2021/09/10 09:06:58;;;;;;;6.63;6.13;;;30.40;42.20;;;;;;5008856;28;20526;-49
2021/09/10 09:09:33;;;;;;;9.63;7.40;;;30.30;41.90;;;;;;5011695;28;20429;-45
2021/09/10 09:12:11;;;;;;;8.10;7.50;;;29.90;42.90;;;;;;5010880;28;20639;-45
2021/09/10 09:14:52;;;;;;;8.27;7.47;;;29.90;42.70;;;;;;5003274;28;20514;-44
2021/09/10 09:17:39;;;;;;;8.07;7.27;;;30.00;42.90;;;;;;5010440;28;20484;-45
2021/09/10 09:20:31;;;;;;;8.37;7.67;;;29.90;42.70;;;;;;5007173;28;20571;-44
2021/09/10 09:23:08;;;;;;;6.93;6.13;;;29.90;41.70;;;;;;5010655;28;20441;-44
2021/09/10 09:25:40;;;;;;;7.97;7.20;;;29.90;42.30;;;;;;5010289;28;20487;-45
2021/09/10 09:28:22;;;;;;;7.70;7.10;;;30.10;42.40;;;;;;5011089;28;20441;-46
2021/09/10 09:30:59;;;;;;;7.97;7.17;;;30.30;41.80;;;;;;5011115;28;20573;-45
2021/09/10 09:33:37;;;;;;;8.13;7.53;;;30.50;42.10;;;;;;5010279;28;21130;-48
2021/09/10 09:36:03;;;;;;;8.17;7.47;;;30.60;42.10;;;;;;5013324;28;20822;-44
2021/09/10 09:38:31;;;;;;;7.63;6.80;;;30.60;42.00;;;;;;5004172;28;20917;-46
2021/09/10 09:40:59;;;;;;;7.40;6.70;;;30.60;41.60;;;;;;5011313;28;20437;-47
2021/09/10 09:43:38;;;;;;;7.33;6.70;;;30.70;42.10;;;;;;5007572;28;20440;-46
2021/09/10 09:46:09;;;;;;;7.50;6.80;;;30.60;40.50;;;;;;5000032;28;20520;-46
2021/09/10 09:48:41;;;;;;;6.70;6.10;;;30.60;40.60;;;;;;5005438;28;20480;-47
2021/09/10 09:51:07;;;;;;;8.23;7.07;;;30.80;40.10;;;;;;5007931;28;20441;-46
2021/09/10 09:53:38;;;;;;;7.77;6.97;;;30.50;40.60;;;;;;5005612;28;20496;-47
2021/09/10 09:56:07;;;;;;;7.13;6.43;;;30.50;40.90;;;;;;5012163;28;20444;-46
2021/09/10 09:58:33;;;;;;;6.50;5.90;;;30.60;40.80;;;;;;5010445;28;21025;-45
2021/09/10 10:00:59;;;;;;;6.57;6.07;;;30.50;40.80;;;;;;5012948;28;20433;-46
2021/09/10 10:03:25;;;;;;;7.47;6.87;;;30.50;40.70;;;;;;5011400;28;20205;-46
2021/09/10 10:05:54;;;;;;;7.10;6.50;;;30.30;41.30;;;;;;5008201;28;20434;-45
2021/09/10 10:08:25;;;;;;;7.97;7.17;;;30.50;41.10;;;;;;5012723;28;20201;-46
2021/09/10 10:10:54;;;;;;;7.03;6.53;;;30.50;41.40;;;;;;5011894;28;20864;-47
2021/09/10 10:13:26;;;;;;;7.93;7.23;;;30.70;40.50;;;;;;5003584;28;20561;-45
2021/09/10 10:15:52;;;;;;;10.03;6.87;;;30.70;40.40;;;;;;5011583;28;20473;-46
2021/09/10 10:18:41;;;;;;;7.30;6.63;;;30.70;40.70;;;;;;5008801;28;20445;-45
2021/09/10 10:21:12;;;;;;;8.13;7.50;;;30.90;40.60;;;;;;5007437;28;20453;-45
2021/09/10 10:23:45;;;;;;;7.70;6.97;;;31.00;40.60;;;;;;5009055;28;20547;-45
2021/09/10 10:26:13;;;;;;;8.60;7.80;;;31.00;40.10;;;;;;5012519;28;20812;-47
2021/09/10 10:28:41;;;;;;;6.90;6.20;;;31.20;39.90;;;;;;5009553;28;21197;-45
2021/09/10 10:31:07;;;;;;;8.83;7.70;;;31.30;39.80;;;;;;5004976;28;20451;-45
2021/09/10 10:33:32;;;;;;;8.30;7.67;;;31.50;39.40;;;;;;5004831;28;20481;-45
2021/09/10 10:35:58;;;;;;;7.20;6.60;;;31.60;39.40;;;;;;5009955;28;20264;-47
2021/09/10 10:38:24;;;;;;;8.53;7.83;;;31.70;39.10;;;;;;5002437;28;20298;-45
2021/09/10 10:40:51;;;;;;;7.50;6.80;;;31.80;39.20;;;;;;5010262;28;20627;-46
2021/09/10 10:43:24;;;;;;;7.73;7.03;;;31.60;38.70;;;;;;5009860;28;20206;-49
2021/09/10 10:46:00;;;;;;;7.13;6.60;;;31.40;39.30;;;;;;4998809;28;20477;-45
2021/09/10 10:48:34;;;;;;;7.23;6.60;;;31.40;38.30;;;;;;5005029;28;20437;-45
2021/09/10 10:51:23;;;;;;;6.70;6.20;;;31.30;38.90;;;;;;5001756;28;20440;-45
2021/09/10 10:53:54;;;;;;;7.70;7.00;;;31.30;38.80;;;;;;5006894;28;20587;-46
2021/09/10 10:56:29;;;;;;;6.97;6.47;;;31.50;38.30;;;;;;4997053;28;20480;-45
2021/09/10 10:59:13;;;;;;;8.50;6.73;;;31.60;38.60;;;;;;5002618;28;20990;-46
2021/09/10 11:02:20;;;;;;;13.90;7.33;;;31.80;38.30;;;;;;4997623;28;20499;-48
2021/09/10 11:04:51;;;;;;;7.73;7.00;;;32.20;38.10;;;;;;5008271;28;20445;-50
2021/09/10 11:07:23;;;;;;;7.33;6.67;;;32.10;37.80;;;;;;5011477;28;20448;-48
2021/09/10 11:10:09;;;;;;;6.30;5.80;;;32.30;37.60;;;;;;5002017;28;20929;-45
2021/09/10 11:12:37;;;;;;;7.10;6.60;;;32.50;37.60;;;;;;5001997;28;20994;-49
2021/09/10 11:15:22;;;;;;;7.37;6.77;;;32.50;37.60;;;;;;5011702;28;20920;-47
2021/09/10 11:17:52;;;;;;;7.77;7.17;;;32.50;37.50;;;;;;5009330;28;20468;-46
2021/09/10 11:20:24;;;;;;;6.83;6.33;;;32.50;36.80;;;;;;5005780;28;20429;-45
2021/09/10 11:22:50;;;;;;;6.93;6.43;;;32.50;37.10;;;;;;5013137;28;21661;-45
2021/09/10 11:25:15;;;;;;;6.60;6.13;;;32.20;36.30;;;;;;5009691;28;20445;-46
2021/09/10 11:27:41;;;;;;;7.97;6.00;;;32.30;36.50;;;;;;5005844;28;20194;-46
2021/09/10 11:30:12;;;;;;;6.67;6.07;;;32.30;35.40;;;;;;5006884;28;20213;-47
2021/09/10 11:32:38;;;;;;;6.03;5.53;;;32.10;36.40;;;;;;5005502;28;20542;-50
2021/09/10 11:35:22;;;;;;;6.40;5.90;;;32.20;36.40;;;;;;5002732;28;20467;-48
2021/09/10 11:38:05;;;;;;;6.50;6.00;;;32.30;36.50;;;;;;5007738;28;20210;-45
2021/09/10 11:40:47;;;;;;;6.80;5.70;;;32.30;36.40;;;;;;5006336;28;20465;-46
2021/09/10 11:43:20;;;;;;;6.20;5.70;;;32.50;35.40;;;;;;5009196;28;20492;-46
2021/09/10 11:46:00;;;;;;;6.17;5.67;;;32.30;35.80;;;;;;5006693;28;20448;-48
2021/09/10 11:48:35;;;;;;;6.83;6.27;;;32.20;35.40;;;;;;5010475;28;20447;-45
2021/09/10 11:51:08;;;;;;;7.20;6.60;;;32.20;36.40;;;;;;5010216;28;20468;-46
2021/09/10 11:53:36;;;;;;;6.90;6.20;;;32.50;36.70;;;;;;5007581;28;20488;-48
2021/09/10 11:56:09;;;;;;;7.30;6.80;;;32.70;36.40;;;;;;5003005;28;20476;-47
2021/09/10 11:58:49;;;;;;;7.83;7.20;;;32.80;35.20;;;;;;5006208;28;20499;-47
2021/09/10 12:01:38;;;;;;;7.27;6.60;;;32.70;35.50;;;;;;5008985;28;20820;-46
2021/09/10 12:04:09;;;;;;;7.67;7.07;;;32.60;35.90;;;;;;5005916;28;20437;-46
2021/09/10 12:06:37;;;;;;;6.90;6.40;;;32.30;36.70;;;;;;5005428;28;20507;-46
2021/09/10 12:09:27;;;;;;;7.93;6.00;;;32.20;36.50;;;;;;5003802;28;20449;-45
2021/09/10 12:12:12;;;;;;;6.87;6.37;;;32.20;36.60;;;;;;5009862;28;20476;-45
2021/09/10 12:14:42;;;;;;;6.77;6.27;;;32.10;37.00;;;;;;5000651;28;20449;-46
2021/09/10 12:17:13;;;;;;;6.77;6.17;;;32.00;37.20;;;;;;5006551;28;20437;-48
2021/09/10 12:20:08;;;;;;;6.83;6.27;;;31.90;36.80;;;;;;5005910;28;20950;-47
2021/09/10 12:22:37;;;;;;;7.20;6.60;;;31.80;37.40;;;;;;4987407;28;20446;-46
2021/09/10 12:25:24;;;;;;;6.47;5.97;;;31.70;37.50;;;;;;5008281;28;20828;-45
2021/09/10 12:28:08;;;;;;;6.60;6.10;;;31.90;37.60;;;;;;5005269;28;20560;-45
2021/09/10 12:30:46;;;;;;;8.47;7.23;;;32.00;37.90;;;;;;5002858;28;20457;-46
2021/09/10 12:33:17;;;;;;;6.93;6.43;;;32.10;37.50;;;;;;5006972;28;20535;-48
2021/09/10 12:35:44;;;;;;;6.80;6.30;;;32.20;37.60;;;;;;4992967;28;20446;-49
2021/09/10 12:38:13;;;;;;;6.33;5.83;;;32.20;37.30;;;;;;4996678;28;20496;-47
2021/09/10 12:40:41;;;;;;;7.50;6.80;;;32.10;37.10;;;;;;5007653;28;20432;-45
2021/09/10 12:43:09;;;;;;;7.07;6.47;;;32.10;37.60;;;;;;5012660;28;20589;-46
2021/09/10 12:45:35;;;;;;;6.33;5.93;;;32.10;37.40;;;;;;5009446;28;20440;-49
2021/09/10 12:48:01;;;;;;;7.23;6.37;;;32.20;37.50;;;;;;5007297;28;20440;-47
2021/09/10 12:50:28;;;;;;;7.33;6.63;;;32.30;36.90;;;;;;5011210;28;20197;-49